sensor_id;sensor_type;location;lat;lon;timestamp;pressure;altitude;pressure_sealevel;temperature;humidity
32933;BME280;19444;50.518;10.870;2023-04-30T00:02:06;96940.31;;;8.16;100.00
32933;BME280;19444;50.518;10.870;2023-04-30T00:05:03;96945.47;;;8.08;100.00
32933;BME280;19444;50.518;10.870;2023-04-30T00:08:00;96938.34;;;8.27;100.00
32933;BME280;19444;50.518;10.870;2023-04-30T00:10:57;96945.75;;;8.06;100.00
32933;BME280;19444;50.518;10.870;2023-04-30T00:13:54;96951.63;;;8.03;100.00
32933;BME280;19444;50.518;10.870;2023-04-30T00:16:52;96958.56;;;7.70;100.00
32933;BME280;19444;50.518;10.870;2023-04-30T00:19:49;96955.56;;;7.77;100.00
32933;BME280;19444;50.518;10.870;2023-04-30T00:22:46;96966.00;;;7.73;100.00
32933;BME280;19444;50.518;10.870;2023-04-30T00:25:43;96962.59;;;7.62;100.00
32933;BME280;19444;50.518;10.870;2023-04-30T00:28:40;96960.91;;;7.77;100.00
32933;BME280;19444;50.518;10.870;2023-04-30T00:31:37;96960.06;;;7.86;100.00
32933;BME280;19444;50.518;10.870;2023-04-30T00:34:34;96969.19;;;7.75;100.00
32933;BME280;19444;50.518;10.870;2023-04-30T00:37:31;96967.41;;;7.99;100.00
32933;BME280;19444;50.518;10.870;2023-04-30T00:40:28;96983.72;;;7.98;100.00
32933;BME280;19444;50.518;10.870;2023-04-30T00:43:26;96972.47;;;8.01;100.00
32933;BME280;19444;50.518;10.870;2023-04-30T00:46:22;96976.53;;;7.93;100.00
32933;BME280;19444;50.518;10.870;2023-04-30T00:49:19;96973.34;;;7.91;100.00
32933;BME280;19444;50.518;10.870;2023-04-30T00:52:16;96975.28;;;7.81;100.00
32933;BME280;19444;50.518;10.870;2023-04-30T00:55:13;96992.25;;;7.95;100.00
32933;BME280;19444;50.518;10.870;2023-04-30T00:58:10;96981.03;;;7.98;100.00
32933;BME280;19444;50.518;10.870;2023-04-30T01:01:07;96989.88;;;7.93;100.00
32933;BME280;19444;50.518;10.870;2023-04-30T01:04:05;96988.63;;;7.81;100.00
32933;BME280;19444;50.518;10.870;2023-04-30T01:07:01;96991.78;;;7.88;100.00
32933;BME280;19444;50.518;10.870;2023-04-30T01:09:59;96981.19;;;7.78;100.00
32933;BME280;19444;50.518;10.870;2023-04-30T01:13:11;96983.81;;;7.83;100.00
32933;BME280;19444;50.518;10.870;2023-04-30T01:16:25;96986.88;;;8.00;100.00
32933;BME280;19444;50.518;10.870;2023-04-30T01:19:43;96980.16;;;8.08;100.00
32933;BME280;19444;50.518;10.870;2023-04-30T01:23:02;96982.72;;;7.89;100.00
32933;BME280;19444;50.518;10.870;2023-04-30T01:30:05;96974.84;;;7.68;100.00
32933;BME280;19444;50.518;10.870;2023-04-30T01:33:02;96977.81;;;7.62;100.00
32933;BME280;19444;50.518;10.870;2023-04-30T01:36:39;96984.69;;;7.68;100.00
32933;BME280;19444;50.518;10.870;2023-04-30T01:43:31;96990.72;;;7.45;100.00
32933;BME280;19444;50.518;10.870;2023-04-30T01:46:30;96989.34;;;7.52;100.00
32933;BME280;19444;50.518;10.870;2023-04-30T01:50:02;96993.34;;;7.50;100.00
32933;BME280;19444;50.518;10.870;2023-04-30T01:53:02;96993.16;;;7.36;100.00
32933;BME280;19444;50.518;10.870;2023-04-30T01:56:03;97006.50;;;7.31;100.00
32933;BME280;19444;50.518;10.870;2023-04-30T01:59:02;97006.25;;;7.27;100.00
32933;BME280;19444;50.518;10.870;2023-04-30T02:01:59;97014.50;;;7.31;100.00
32933;BME280;19444;50.518;10.870;2023-04-30T02:04:56;97009.16;;;7.41;100.00
32933;BME280;19444;50.518;10.870;2023-04-30T02:07:54;97014.59;;;7.16;100.00
32933;BME280;19444;50.518;10.870;2023-04-30T02:10:51;97010.56;;;7.23;100.00
32933;BME280;19444;50.518;10.870;2023-04-30T02:13:47;97016.47;;;7.10;100.00
32933;BME280;19444;50.518;10.870;2023-04-30T02:16:44;97018.56;;;7.18;100.00
32933;BME280;19444;50.518;10.870;2023-04-30T02:19:41;97022.66;;;6.95;100.00
32933;BME280;19444;50.518;10.870;2023-04-30T02:22:38;97021.47;;;7.27;100.00
32933;BME280;19444;50.518;10.870;2023-04-30T02:25:35;97026.75;;;7.37;100.00
32933;BME280;19444;50.518;10.870;2023-04-30T02:28:34;97024.19;;;7.11;100.00
32933;BME280;19444;50.518;10.870;2023-04-30T02:31:31;97030.66;;;6.95;100.00
32933;BME280;19444;50.518;10.870;2023-04-30T02:34:28;97032.44;;;7.10;100.00
32933;BME280;19444;50.518;10.870;2023-04-30T02:37:25;97038.06;;;7.13;100.00
32933;BME280;19444;50.518;10.870;2023-04-30T02:40:22;97031.09;;;7.18;100.00
32933;BME280;19444;50.518;10.870;2023-04-30T02:43:19;97028.75;;;7.06;100.00
32933;BME280;19444;50.518;10.870;2023-04-30T02:46:16;97030.38;;;6.97;100.00
32933;BME280;19444;50.518;10.870;2023-04-30T02:49:14;97029.09;;;6.69;100.00
32933;BME280;19444;50.518;10.870;2023-04-30T02:52:11;97028.56;;;6.72;100.00
32933;BME280;19444;50.518;10.870;2023-04-30T02:55:08;97031.41;;;7.01;100.00
32933;BME280;19444;50.518;10.870;2023-04-30T02:58:05;97029.38;;;6.52;100.00
32933;BME280;19444;50.518;10.870;2023-04-30T03:01:02;97027.25;;;6.59;100.00
32933;BME280;19444;50.518;10.870;2023-04-30T03:03:59;97023.53;;;6.30;100.00
32933;BME280;19444;50.518;10.870;2023-04-30T03:06:55;97028.34;;;6.43;100.00
32933;BME280;19444;50.518;10.870;2023-04-30T03:09:52;97030.19;;;6.52;100.00
32933;BME280;19444;50.518;10.870;2023-04-30T03:12:49;97042.69;;;6.37;100.00
32933;BME280;19444;50.518;10.870;2023-04-30T03:15:46;97037.38;;;6.37;100.00
32933;BME280;19444;50.518;10.870;2023-04-30T03:18:47;97027.00;;;6.40;100.00
32933;BME280;19444;50.518;10.870;2023-04-30T03:21:44;97033.66;;;6.22;100.00
32933;BME280;19444;50.518;10.870;2023-04-30T03:24:42;97030.47;;;6.15;100.00
32933;BME280;19444;50.518;10.870;2023-04-30T03:27:38;97029.38;;;6.21;100.00
32933;BME280;19444;50.518;10.870;2023-04-30T03:30:35;97031.78;;;6.08;100.00
32933;BME280;19444;50.518;10.870;2023-04-30T03:33:32;97033.91;;;6.21;100.00
32933;BME280;19444;50.518;10.870;2023-04-30T03:36:29;97028.59;;;6.26;100.00
32933;BME280;19444;50.518;10.870;2023-04-30T03:39:27;97028.34;;;6.22;100.00
32933;BME280;19444;50.518;10.870;2023-04-30T03:42:23;97034.97;;;6.30;100.00
32933;BME280;19444;50.518;10.870;2023-04-30T03:45:20;97030.44;;;6.31;100.00
32933;BME280;19444;50.518;10.870;2023-04-30T03:48:17;97029.38;;;6.52;100.00
32933;BME280;19444;50.518;10.870;2023-04-30T03:51:14;97034.19;;;6.35;100.00
32933;BME280;19444;50.518;10.870;2023-04-30T03:54:11;97027.53;;;6.32;100.00
32933;BME280;19444;50.518;10.870;2023-04-30T03:57:08;97026.47;;;6.13;100.00
32933;BME280;19444;50.518;10.870;2023-04-30T04:00:07;97034.69;;;6.21;100.00
32933;BME280;19444;50.518;10.870;2023-04-30T04:03:05;97034.19;;;6.09;100.00
32933;BME280;19444;50.518;10.870;2023-04-30T04:06:03;97034.19;;;6.30;100.00
32933;BME280;19444;50.518;10.870;2023-04-30T04:09:01;97033.09;;;6.56;100.00
32933;BME280;19444;50.518;10.870;2023-04-30T04:11:58;97036.84;;;6.40;100.00
32933;BME280;19444;50.518;10.870;2023-04-30T04:14:54;97037.38;;;6.37;100.00
32933;BME280;19444;50.518;10.870;2023-04-30T04:17:51;97040.56;;;6.28;100.00
32933;BME280;19444;50.518;10.870;2023-04-30T04:20:48;97037.34;;;6.67;100.00
32933;BME280;19444;50.518;10.870;2023-04-30T04:23:45;97051.47;;;6.37;100.00
32933;BME280;19444;50.518;10.870;2023-04-30T04:26:42;97037.91;;;6.28;100.00
32933;BME280;19444;50.518;10.870;2023-04-30T04:29:40;97038.47;;;6.41;100.00
32933;BME280;19444;50.518;10.870;2023-04-30T04:32:37;97049.38;;;6.24;100.00
32933;BME280;19444;50.518;10.870;2023-04-30T04:35:43;97055.47;;;6.14;100.00
32933;BME280;19444;50.518;10.870;2023-04-30T04:38:40;97055.19;;;5.90;100.00
32933;BME280;19444;50.518;10.870;2023-04-30T04:41:38;97052.00;;;5.98;100.00
32933;BME280;19444;50.518;10.870;2023-04-30T04:44:35;97059.72;;;5.95;100.00
32933;BME280;19444;50.518;10.870;2023-04-30T04:47:32;97065.56;;;5.97;100.00
32933;BME280;19444;50.518;10.870;2023-04-30T04:50:29;97062.63;;;5.93;100.00
32933;BME280;19444;50.518;10.870;2023-04-30T04:53:26;97060.00;;;6.04;100.00
32933;BME280;19444;50.518;10.870;2023-04-30T04:56:23;97055.72;;;6.03;100.00
32933;BME280;19444;50.518;10.870;2023-04-30T04:59:20;97052.56;;;6.26;100.00
32933;BME280;19444;50.518;10.870;2023-04-30T05:02:17;97054.94;;;6.63;100.00
32933;BME280;19444;50.518;10.870;2023-04-30T05:05:14;97053.03;;;6.89;100.00
32933;BME280;19444;50.518;10.870;2023-04-30T05:08:11;97062.09;;;6.88;100.00
32933;BME280;19444;50.518;10.870;2023-04-30T05:11:08;97059.69;;;6.81;100.00
32933;BME280;19444;50.518;10.870;2023-04-30T05:14:05;97059.38;;;7.08;100.00
32933;BME280;19444;50.518;10.870;2023-04-30T05:17:02;97062.66;;;6.70;100.00
32933;BME280;19444;50.518;10.870;2023-04-30T05:19:59;97060.25;;;6.58;100.00
32933;BME280;19444;50.518;10.870;2023-04-30T05:22:56;97064.75;;;6.88;100.00
32933;BME280;19444;50.518;10.870;2023-04-30T05:25:53;97074.88;;;6.86;100.00
32933;BME280;19444;50.518;10.870;2023-04-30T05:28:50;97059.91;;;7.10;100.00
32933;BME280;19444;50.518;10.870;2023-04-30T05:31:48;97062.03;;;7.13;100.00
32933;BME280;19444;50.518;10.870;2023-04-30T05:34:45;97070.00;;;7.24;100.00
32933;BME280;19444;50.518;10.870;2023-04-30T05:37:42;97073.56;;;7.68;100.00
32933;BME280;19444;50.518;10.870;2023-04-30T05:40:39;97066.94;;;7.56;100.00
32933;BME280;19444;50.518;10.870;2023-04-30T05:43:36;97061.53;;;7.71;100.00
32933;BME280;19444;50.518;10.870;2023-04-30T05:46:33;97061.16;;;7.88;100.00
32933;BME280;19444;50.518;10.870;2023-04-30T05:49:31;97070.47;;;7.95;100.00
32933;BME280;19444;50.518;10.870;2023-04-30T05:52:31;97066.50;;;8.27;100.00
32933;BME280;19444;50.518;10.870;2023-04-30T05:55:28;97059.06;;;8.58;100.00
32933;BME280;19444;50.518;10.870;2023-04-30T05:58:25;97066.47;;;8.66;100.00
32933;BME280;19444;50.518;10.870;2023-04-30T06:01:23;97061.22;;;8.85;100.00
32933;BME280;19444;50.518;10.870;2023-04-30T06:04:21;97057.16;;;8.93;100.00
32933;BME280;19444;50.518;10.870;2023-04-30T06:07:18;97060.34;;;8.95;100.00
32933;BME280;19444;50.518;10.870;2023-04-30T06:10:14;97054.41;;;8.74;100.00
32933;BME280;19444;50.518;10.870;2023-04-30T06:13:11;97062.53;;;8.59;100.00
32933;BME280;19444;50.518;10.870;2023-04-30T06:16:10;97062.47;;;8.69;100.00
32933;BME280;19444;50.518;10.870;2023-04-30T06:19:07;97060.59;;;8.98;100.00
32933;BME280;19444;50.518;10.870;2023-04-30T06:22:04;97051.13;;;9.30;100.00
32933;BME280;19444;50.518;10.870;2023-04-30T06:25:01;97061.47;;;8.89;100.00
32933;BME280;19444;50.518;10.870;2023-04-30T06:27:59;97058.38;;;9.05;100.00
32933;BME280;19444;50.518;10.870;2023-04-30T06:30:56;97062.84;;;9.10;100.00
32933;BME280;19444;50.518;10.870;2023-04-30T06:33:53;97062.06;;;9.09;100.00
32933;BME280;19444;50.518;10.870;2023-04-30T06:36:50;97065.31;;;8.77;100.00
32933;BME280;19444;50.518;10.870;2023-04-30T06:39:48;97069.31;;;9.33;100.00
32933;BME280;19444;50.518;10.870;2023-04-30T06:42:45;97063.19;;;9.27;100.00
32933;BME280;19444;50.518;10.870;2023-04-30T06:45:43;97063.41;;;9.31;100.00
32933;BME280;19444;50.518;10.870;2023-04-30T06:48:40;97058.13;;;9.68;100.00
32933;BME280;19444;50.518;10.870;2023-04-30T06:51:37;97053.53;;;9.93;100.00
32933;BME280;19444;50.518;10.870;2023-04-30T06:54:34;97045.81;;;9.91;100.00
32933;BME280;19444;50.518;10.870;2023-04-30T06:57:31;97048.22;;;9.50;100.00
32933;BME280;19444;50.518;10.870;2023-04-30T07:00:28;97054.41;;;9.69;100.00
32933;BME280;19444;50.518;10.870;2023-04-30T07:03:25;97045.28;;;10.08;100.00
32933;BME280;19444;50.518;10.870;2023-04-30T07:06:23;97044.22;;;10.28;100.00
32933;BME280;19444;50.518;10.870;2023-04-30T07:09:19;97050.94;;;10.44;100.00
32933;BME280;19444;50.518;10.870;2023-04-30T07:12:17;97036.56;;;10.54;100.00
32933;BME280;19444;50.518;10.870;2023-04-30T07:15:13;97044.88;;;10.85;100.00
32933;BME280;19444;50.518;10.870;2023-04-30T07:18:10;97042.84;;;10.63;100.00
32933;BME280;19444;50.518;10.870;2023-04-30T07:21:08;97048.03;;;10.87;100.00
32933;BME280;19444;50.518;10.870;2023-04-30T07:24:05;97045.78;;;11.22;100.00
32933;BME280;19444;50.518;10.870;2023-04-30T07:27:01;97048.38;;;11.54;100.00
32933;BME280;19444;50.518;10.870;2023-04-30T07:29:59;97042.97;;;11.68;100.00
32933;BME280;19444;50.518;10.870;2023-04-30T07:32:56;97052.06;;;11.31;100.00
32933;BME280;19444;50.518;10.870;2023-04-30T07:35:53;97043.81;;;12.05;100.00
32933;BME280;19444;50.518;10.870;2023-04-30T07:38:52;97042.38;;;11.99;100.00
32933;BME280;19444;50.518;10.870;2023-04-30T07:41:49;97032.66;;;12.11;100.00
32933;BME280;19444;50.518;10.870;2023-04-30T07:44:46;97038.00;;;12.47;100.00
32933;BME280;19444;50.518;10.870;2023-04-30T07:47:44;97040.44;;;12.35;100.00
32933;BME280;19444;50.518;10.870;2023-04-30T07:50:43;97041.69;;;11.65;100.00
32933;BME280;19444;50.518;10.870;2023-04-30T07:53:42;97044.91;;;12.40;100.00
32933;BME280;19444;50.518;10.870;2023-04-30T07:56:39;97041.13;;;12.94;100.00
32933;BME280;19444;50.518;10.870;2023-04-30T07:59:37;97044.13;;;12.70;100.00
32933;BME280;19444;50.518;10.870;2023-04-30T08:02:34;97041.69;;;12.15;100.00
32933;BME280;19444;50.518;10.870;2023-04-30T08:05:33;97048.84;;;12.20;100.00
32933;BME280;19444;50.518;10.870;2023-04-30T08:08:29;97039.69;;;13.76;100.00
32933;BME280;19444;50.518;10.870;2023-04-30T08:11:26;97031.94;;;14.61;100.00
32933;BME280;19444;50.518;10.870;2023-04-30T08:14:23;97037.31;;;14.44;100.00
32933;BME280;19444;50.518;10.870;2023-04-30T08:17:20;97032.66;;;15.93;92.76
32933;BME280;19444;50.518;10.870;2023-04-30T08:20:17;97036.66;;;13.69;98.83
32933;BME280;19444;50.518;10.870;2023-04-30T08:23:14;97040.53;;;14.63;95.65
32933;BME280;19444;50.518;10.870;2023-04-30T08:26:12;97034.19;;;15.44;87.63
32933;BME280;19444;50.518;10.870;2023-04-30T08:29:09;97042.66;;;14.96;90.12
32933;BME280;19444;50.518;10.870;2023-04-30T08:32:06;97042.50;;;15.39;93.18
32933;BME280;19444;50.518;10.870;2023-04-30T08:35:05;97043.53;;;15.17;84.87
32933;BME280;19444;50.518;10.870;2023-04-30T08:38:02;97041.00;;;15.50;90.59
32933;BME280;19444;50.518;10.870;2023-04-30T08:41:11;97033.28;;;17.56;70.20
32933;BME280;19444;50.518;10.870;2023-04-30T08:44:10;97037.56;;;17.45;70.65
32933;BME280;19444;50.518;10.870;2023-04-30T08:47:09;97027.97;;;17.72;66.25
32933;BME280;19444;50.518;10.870;2023-04-30T08:50:09;97035.63;;;18.06;60.28
32933;BME280;19444;50.518;10.870;2023-04-30T08:53:07;97036.53;;;18.94;61.81
32933;BME280;19444;50.518;10.870;2023-04-30T08:56:09;97039.44;;;17.08;67.70
32933;BME280;19444;50.518;10.870;2023-04-30T08:59:06;97035.41;;;17.62;60.12
32933;BME280;19444;50.518;10.870;2023-04-30T09:02:04;97032.00;;;19.30;57.85
32933;BME280;19444;50.518;10.870;2023-04-30T09:05:02;97034.81;;;19.49;55.79
32933;BME280;19444;50.518;10.870;2023-04-30T09:07:59;97047.16;;;16.52;61.44
32933;BME280;19444;50.518;10.870;2023-04-30T09:11:00;97044.28;;;18.52;61.43
32933;BME280;19444;50.518;10.870;2023-04-30T09:13:59;97041.06;;;20.20;52.98
32933;BME280;19444;50.518;10.870;2023-04-30T09:16:56;97045.09;;;18.81;56.33
32933;BME280;19444;50.518;10.870;2023-04-30T09:19:53;97046.50;;;17.70;57.24
32933;BME280;19444;50.518;10.870;2023-04-30T09:23:08;97048.72;;;17.92;59.48
32933;BME280;19444;50.518;10.870;2023-04-30T09:26:05;97032.97;;;20.59;53.09
32933;BME280;19444;50.518;10.870;2023-04-30T09:29:03;97036.88;;;17.60;57.85
32933;BME280;19444;50.518;10.870;2023-04-30T09:32:07;97030.31;;;19.10;53.71
32933;BME280;19444;50.518;10.870;2023-04-30T09:35:05;97031.38;;;19.68;55.87
32933;BME280;19444;50.518;10.870;2023-04-30T09:38:04;97032.91;;;18.06;59.03
32933;BME280;19444;50.518;10.870;2023-04-30T09:41:01;97020.81;;;18.72;54.33
32933;BME280;19444;50.518;10.870;2023-04-30T09:43:58;97018.13;;;18.88;56.58
32933;BME280;19444;50.518;10.870;2023-04-30T09:46:56;97023.16;;;20.19;52.28
32933;BME280;19444;50.518;10.870;2023-04-30T09:49:54;97025.50;;;19.03;69.81
32933;BME280;19444;50.518;10.870;2023-04-30T09:52:52;97021.47;;;20.30;50.79
32933;BME280;19444;50.518;10.870;2023-04-30T09:55:50;97019.84;;;19.91;52.15
32933;BME280;19444;50.518;10.870;2023-04-30T09:58:50;97022.00;;;19.18;59.06
32933;BME280;19444;50.518;10.870;2023-04-30T10:01:51;97021.72;;;19.55;50.14
32933;BME280;19444;50.518;10.870;2023-04-30T10:04:54;97025.75;;;18.98;50.38
32933;BME280;19444;50.518;10.870;2023-04-30T10:07:52;97018.34;;;19.58;49.11
32933;BME280;19444;50.518;10.870;2023-04-30T10:10:55;97027.75;;;18.57;50.77
32933;BME280;19444;50.518;10.870;2023-04-30T10:14:02;97005.47;;;20.09;51.81
32933;BME280;19444;50.518;10.870;2023-04-30T10:17:17;97006.31;;;20.91;45.52
32933;BME280;19444;50.518;10.870;2023-04-30T10:20:16;97007.09;;;19.59;49.84
32933;BME280;19444;50.518;10.870;2023-04-30T10:23:14;96993.25;;;19.17;48.86
32933;BME280;19444;50.518;10.870;2023-04-30T10:26:12;96999.44;;;18.70;48.78
32933;BME280;19444;50.518;10.870;2023-04-30T10:29:10;96997.31;;;20.29;48.19
32933;BME280;19444;50.518;10.870;2023-04-30T10:32:10;96993.16;;;18.66;46.50
32933;BME280;19444;50.518;10.870;2023-04-30T10:35:17;96986.56;;;20.16;50.85
32933;BME280;19444;50.518;10.870;2023-04-30T10:38:22;96979.91;;;19.59;46.72
32933;BME280;19444;50.518;10.870;2023-04-30T10:41:20;96984.38;;;19.68;60.39
32933;BME280;19444;50.518;10.870;2023-04-30T10:44:21;96970.88;;;20.10;47.20
32933;BME280;19444;50.518;10.870;2023-04-30T10:47:18;96979.72;;;19.52;48.05
32933;BME280;19444;50.518;10.870;2023-04-30T10:50:15;96970.91;;;19.75;49.91
32933;BME280;19444;50.518;10.870;2023-04-30T10:53:16;96966.09;;;20.84;47.94
32933;BME280;19444;50.518;10.870;2023-04-30T10:56:13;96943.31;;;22.65;47.11
32933;BME280;19444;50.518;10.870;2023-04-30T10:59:10;96953.72;;;20.06;44.98
32933;BME280;19444;50.518;10.870;2023-04-30T11:02:10;96948.50;;;20.78;46.82
32933;BME280;19444;50.518;10.870;2023-04-30T11:05:11;96947.22;;;21.41;44.52
32933;BME280;19444;50.518;10.870;2023-04-30T11:08:12;96944.25;;;22.43;43.08
32933;BME280;19444;50.518;10.870;2023-04-30T11:11:09;96944.88;;;21.43;45.56
32933;BME280;19444;50.518;10.870;2023-04-30T11:14:06;96946.91;;;21.00;44.40
32933;BME280;19444;50.518;10.870;2023-04-30T11:17:03;96949.09;;;21.93;43.80
32933;BME280;19444;50.518;10.870;2023-04-30T11:20:00;96947.03;;;21.30;40.80
32933;BME280;19444;50.518;10.870;2023-04-30T11:23:15;96941.75;;;21.18;43.86
32933;BME280;19444;50.518;10.870;2023-04-30T11:26:25;96935.09;;;21.15;41.76
32933;BME280;19444;50.518;10.870;2023-04-30T11:29:22;96931.41;;;21.04;47.69
32933;BME280;19444;50.518;10.870;2023-04-30T11:32:23;96933.44;;;21.11;43.69
32933;BME280;19444;50.518;10.870;2023-04-30T11:35:20;96931.06;;;21.06;42.79
32933;BME280;19444;50.518;10.870;2023-04-30T11:38:21;96925.13;;;21.49;43.27
32933;BME280;19444;50.518;10.870;2023-04-30T11:41:21;96930.06;;;22.30;41.17
32933;BME280;19444;50.518;10.870;2023-04-30T11:44:25;96923.66;;;22.16;39.03
32933;BME280;19444;50.518;10.870;2023-04-30T11:47:22;96920.34;;;22.03;41.84
32933;BME280;19444;50.518;10.870;2023-04-30T11:50:22;96915.22;;;22.28;45.41
32933;BME280;19444;50.518;10.870;2023-04-30T11:53:28;96900.94;;;22.41;47.65
32933;BME280;19444;50.518;10.870;2023-04-30T11:56:26;96925.59;;;20.83;42.55
32933;BME280;19444;50.518;10.870;2023-04-30T11:59:23;96914.13;;;22.36;41.93
32933;BME280;19444;50.518;10.870;2023-04-30T12:02:20;96912.03;;;22.59;39.35
32933;BME280;19444;50.518;10.870;2023-04-30T12:05:23;96909.84;;;22.38;44.59
32933;BME280;19444;50.518;10.870;2023-04-30T12:08:20;96905.41;;;22.60;40.44
32933;BME280;19444;50.518;10.870;2023-04-30T12:11:26;96904.31;;;22.68;37.41
32933;BME280;19444;50.518;10.870;2023-04-30T12:14:24;96904.34;;;22.01;40.17
32933;BME280;19444;50.518;10.870;2023-04-30T12:17:33;96888.59;;;24.62;45.91
32933;BME280;19444;50.518;10.870;2023-04-30T12:20:30;96905.94;;;22.36;41.28
32933;BME280;19444;50.518;10.870;2023-04-30T12:23:28;96898.50;;;22.74;42.42
32933;BME280;19444;50.518;10.870;2023-04-30T12:26:37;96896.94;;;23.20;38.24
32933;BME280;19444;50.518;10.870;2023-04-30T12:29:42;96886.19;;;22.94;37.79
32933;BME280;19444;50.518;10.870;2023-04-30T12:32:43;96899.72;;;22.39;44.02
32933;BME280;19444;50.518;10.870;2023-04-30T12:35:42;96896.16;;;21.68;38.71
32933;BME280;19444;50.518;10.870;2023-04-30T12:38:42;96891.31;;;22.18;38.78
32933;BME280;19444;50.518;10.870;2023-04-30T12:41:48;96881.72;;;22.75;45.38
32933;BME280;19444;50.518;10.870;2023-04-30T12:44:45;96891.50;;;22.35;37.71
32933;BME280;19444;50.518;10.870;2023-04-30T12:47:42;96876.00;;;23.42;39.81
32933;BME280;19444;50.518;10.870;2023-04-30T12:50:39;96883.78;;;22.41;39.70
32933;BME280;19444;50.518;10.870;2023-04-30T12:53:45;96895.38;;;21.14;37.54
32933;BME280;19444;50.518;10.870;2023-04-30T12:57:04;96868.34;;;22.59;37.16
32933;BME280;19444;50.518;10.870;2023-04-30T13:00:02;96875.09;;;21.38;36.87
32933;BME280;19444;50.518;10.870;2023-04-30T13:03:01;96880.03;;;21.29;40.14
32933;BME280;19444;50.518;10.870;2023-04-30T13:05:58;96874.38;;;22.38;35.88
32933;BME280;19444;50.518;10.870;2023-04-30T13:08:57;96870.34;;;21.09;53.07
32933;BME280;19444;50.518;10.870;2023-04-30T13:11:54;96857.97;;;22.79;38.13
32933;BME280;19444;50.518;10.870;2023-04-30T13:14:51;96855.41;;;22.16;37.98
32933;BME280;19444;50.518;10.870;2023-04-30T13:17:48;96862.72;;;21.74;38.11
32933;BME280;19444;50.518;10.870;2023-04-30T13:20:45;96862.72;;;21.74;38.31
32933;BME280;19444;50.518;10.870;2023-04-30T13:23:42;96864.84;;;21.88;41.61
32933;BME280;19444;50.518;10.870;2023-04-30T13:26:48;96852.50;;;21.68;37.81
32933;BME280;19444;50.518;10.870;2023-04-30T13:29:45;96858.97;;;21.86;38.12
32933;BME280;19444;50.518;10.870;2023-04-30T13:32:42;96849.97;;;21.52;39.93
32933;BME280;19444;50.518;10.870;2023-04-30T13:35:41;96857.69;;;21.46;36.35
32933;BME280;19444;50.518;10.870;2023-04-30T13:38:38;96853.34;;;21.42;36.92
32933;BME280;19444;50.518;10.870;2023-04-30T13:41:35;96851.00;;;20.91;37.32
32933;BME280;19444;50.518;10.870;2023-04-30T13:44:32;96846.31;;;22.04;43.44
32933;BME280;19444;50.518;10.870;2023-04-30T13:47:29;96855.31;;;20.92;37.13
32933;BME280;19444;50.518;10.870;2023-04-30T13:50:26;96842.59;;;21.56;36.45
32933;BME280;19444;50.518;10.870;2023-04-30T13:53:23;96839.66;;;21.68;38.91
32933;BME280;19444;50.518;10.870;2023-04-30T13:56:20;96833.47;;;21.41;35.37
32933;BME280;19444;50.518;10.870;2023-04-30T13:59:17;96832.56;;;21.64;35.64
32933;BME280;19444;50.518;10.870;2023-04-30T14:02:14;96836.88;;;23.38;39.60
32933;BME280;19444;50.518;10.870;2023-04-30T14:05:11;96835.78;;;22.06;42.96
32933;BME280;19444;50.518;10.870;2023-04-30T14:08:08;96825.72;;;22.10;36.83
32933;BME280;19444;50.518;10.870;2023-04-30T14:11:05;96835.81;;;21.16;36.07
32933;BME280;19444;50.518;10.870;2023-04-30T14:14:02;96825.44;;;21.52;39.81
32933;BME280;19444;50.518;10.870;2023-04-30T14:16:59;96829.78;;;22.27;37.05
32933;BME280;19444;50.518;10.870;2023-04-30T14:19:57;96833.00;;;22.03;35.58
32933;BME280;19444;50.518;10.870;2023-04-30T14:22:54;96833.00;;;22.03;40.28
32933;BME280;19444;50.518;10.870;2023-04-30T14:25:52;96815.66;;;22.18;34.95
32933;BME280;19444;50.518;10.870;2023-04-30T14:28:49;96815.91;;;21.72;34.39
32933;BME280;19444;50.518;10.870;2023-04-30T14:31:46;96822.19;;;21.16;35.44
32933;BME280;19444;50.518;10.870;2023-04-30T14:34:43;96809.97;;;21.97;43.23
32933;BME280;19444;50.518;10.870;2023-04-30T14:37:40;96807.75;;;21.72;41.36
32933;BME280;19444;50.518;10.870;2023-04-30T14:40:37;96814.88;;;21.84;41.58
32933;BME280;19444;50.518;10.870;2023-04-30T14:43:34;96812.94;;;22.22;33.94
32933;BME280;19444;50.518;10.870;2023-04-30T14:46:31;96798.03;;;22.08;36.20
32933;BME280;19444;50.518;10.870;2023-04-30T14:49:29;96803.84;;;22.07;34.49
32933;BME280;19444;50.518;10.870;2023-04-30T14:52:26;96802.66;;;22.45;36.03
32933;BME280;19444;50.518;10.870;2023-04-30T14:55:23;96801.69;;;22.27;37.44
32933;BME280;19444;50.518;10.870;2023-04-30T14:58:20;96788.03;;;21.86;36.39
32933;BME280;19444;50.518;10.870;2023-04-30T15:01:17;96781.19;;;21.36;36.47
32933;BME280;19444;50.518;10.870;2023-04-30T15:04:14;96794.28;;;20.70;40.31
32933;BME280;19444;50.518;10.870;2023-04-30T15:07:11;96791.25;;;21.62;43.03
32933;BME280;19444;50.518;10.870;2023-04-30T15:10:09;96795.97;;;21.05;37.83
32933;BME280;19444;50.518;10.870;2023-04-30T15:13:06;96794.66;;;20.95;44.73
32933;BME280;19444;50.518;10.870;2023-04-30T15:16:04;96796.41;;;21.10;38.40
32933;BME280;19444;50.518;10.870;2023-04-30T15:19:01;96792.97;;;20.87;40.13
32933;BME280;19444;50.518;10.870;2023-04-30T15:21:59;96785.84;;;22.02;36.33
32933;BME280;19444;50.518;10.870;2023-04-30T15:24:56;96780.31;;;21.95;39.96
32933;BME280;19444;50.518;10.870;2023-04-30T15:27:54;96784.25;;;21.31;38.64
32933;BME280;19444;50.518;10.870;2023-04-30T15:30:50;96786.25;;;20.54;37.98
32933;BME280;19444;50.518;10.870;2023-04-30T15:33:50;96783.28;;;20.63;38.85
32933;BME280;19444;50.518;10.870;2023-04-30T15:36:48;96779.47;;;21.88;37.13
32933;BME280;19444;50.518;10.870;2023-04-30T15:39:45;96787.06;;;21.38;42.91
32933;BME280;19444;50.518;10.870;2023-04-30T15:42:45;96782.78;;;20.84;38.67